Time;durP1;ratioP1;P1;durP2;ratioP2;P2;SDS_P1;SDS_P2;PMS_P1;PMS_P2;Temp;Humidity;BMP_temperature;BMP_pressure;BME280_temperature;BME280_humidity;BME280_pressure;Samples;Min_cycle;Max_cycle;Signal;HPM_P1;HPM_P2
2023/06/04 00:02:24;;;;;;;6.13;2.13;;;9.40;61.00;;;;;;6010837;23;20422;-62
2023/06/04 00:04:51;;;;;;;5.10;2.07;;;9.50;56.70;;;;;;6011700;23;20442;-62
2023/06/04 00:07:17;;;;;;;8.80;1.90;;;9.60;56.30;;;;;;6011252;23;20427;-62
2023/06/04 00:09:46;;;;;;;4.50;1.70;;;9.50;58.50;;;;;;6011436;23;20424;-64
2023/06/04 00:12:13;;;;;;;4.80;2.10;;;9.40;61.40;;;;;;6011454;23;20420;-63
2023/06/04 00:14:40;;;;;;;6.73;2.10;;;9.30;67.60;;;;;;6011208;23;20454;-62
2023/06/04 00:17:09;;;;;;;5.40;2.07;;;9.30;68.30;;;;;;6010797;23;20434;-62
2023/06/04 00:19:36;;;;;;;6.20;2.03;;;9.30;65.80;;;;;;6011785;23;20442;-62
2023/06/04 00:22:03;;;;;;;7.17;2.47;;;9.30;69.20;;;;;;6011085;23;20419;-63
2023/06/04 00:24:29;;;;;;;6.43;1.87;;;9.30;64.10;;;;;;6011284;23;20447;-63
2023/06/04 00:26:56;;;;;;;5.30;1.87;;;9.30;63.60;;;;;;6011447;23;20426;-62
2023/06/04 00:29:23;;;;;;;5.87;2.17;;;9.30;61.40;;;;;;6011620;23;20451;-63
2023/06/04 00:31:50;;;;;;;5.60;2.20;;;9.30;61.30;;;;;;6020038;23;20811;-63
2023/06/04 00:34:19;;;;;;;7.10;1.90;;;9.30;61.30;;;;;;6011570;23;20415;-63
2023/06/04 00:36:46;;;;;;;10.50;2.20;;;9.40;60.10;;;;;;6011292;23;20424;-62
2023/06/04 00:39:13;;;;;;;5.17;1.90;;;9.40;60.60;;;;;;6011253;23;20426;-63
2023/06/04 00:41:39;;;;;;;6.00;2.10;;;9.40;58.40;;;;;;6011070;23;20420;-63
2023/06/04 00:44:07;;;;;;;5.47;2.07;;;9.50;57.40;;;;;;6010740;23;20495;-62
2023/06/04 00:46:35;;;;;;;4.40;1.70;;;9.60;55.20;;;;;;6011322;23;20418;-63
2023/06/04 00:49:03;;;;;;;6.93;2.00;;;9.50;57.00;;;;;;6010948;23;20475;-63
2023/06/04 00:51:32;;;;;;;5.33;1.97;;;9.50;56.10;;;;;;6011518;23;20419;-62
2023/06/04 00:54:01;;;;;;;4.60;1.70;;;9.40;61.40;;;;;;6010607;23;20896;-63
2023/06/04 00:56:28;;;;;;;6.13;2.10;;;9.40;63.20;;;;;;6010836;23;20980;-62
2023/06/04 00:58:55;;;;;;;5.13;2.10;;;9.30;65.60;;;;;;6011191;23;20420;-62
2023/06/04 01:01:27;;;;;;;6.07;2.40;;;9.30;68.30;;;;;;6011009;23;20904;-62
2023/06/04 01:03:56;;;;;;;6.47;2.47;;;9.20;69.40;;;;;;6010669;23;20427;-62
2023/06/04 01:06:32;;;;;;;6.10;2.33;;;9.10;73.10;;;;;;6010926;23;20963;-62
2023/06/04 01:09:02;;;;;;;6.17;2.43;;;9.10;74.70;;;;;;6020376;23;20921;-62
2023/06/04 01:11:34;;;;;;;8.07;1.93;;;8.90;73.70;;;;;;6011498;23;20514;-62
2023/06/04 01:14:01;;;;;;;5.27;2.57;;;8.80;76.90;;;;;;6010882;23;20416;-62
2023/06/04 01:16:29;;;;;;;7.10;2.07;;;8.70;78.80;;;;;;6011068;23;20770;-62
2023/06/04 01:19:00;;;;;;;6.43;2.60;;;8.60;83.80;;;;;;6011041;23;20419;-62
2023/06/04 01:21:30;;;;;;;5.23;2.37;;;8.50;86.90;;;;;;6010905;23;20410;-62
2023/06/04 01:24:01;;;;;;;5.63;2.37;;;8.50;88.40;;;;;;6010340;23;20443;-62
2023/06/04 01:26:30;;;;;;;5.37;2.23;;;8.40;88.30;;;;;;6011089;23;20403;-62
2023/06/04 01:28:58;;;;;;;6.13;2.80;;;8.30;88.60;;;;;;6012414;23;20744;-62
2023/06/04 01:31:32;;;;;;;5.77;2.17;;;8.30;86.00;;;;;;6013975;23;20458;-61
2023/06/04 01:33:59;;;;;;;5.33;2.53;;;8.20;87.60;;;;;;6011663;23;20392;-61
2023/06/04 07:34:36;;;;;;;6.00;2.03;;;21.50;5.60;;;;;;6011285;23;20433;-67
2023/06/04 07:37:03;;;;;;;5.90;2.20;;;21.70;8.10;;;;;;6010503;23;20836;-68
2023/06/04 07:39:30;;;;;;;5.90;2.03;;;21.50;1.00;;;;;;6010821;23;20456;-81
2023/06/04 07:41:57;;;;;;;6.93;2.40;;;21.80;1.40;;;;;;6010055;23;20501;-82
2023/06/04 07:44:24;;;;;;;5.50;2.33;;;21.70;1.00;;;;;;6009858;23;20994;-81
2023/06/04 07:46:54;;;;;;;6.00;2.97;;;21.90;1.00;;;;;;6009799;23;20506;-86
2023/06/04 07:49:28;;;;;;;6.78;2.50;;;21.80;1.00;;;;;;6009020;23;20427;-88
2023/06/04 07:52:00;;;;;;;11.77;2.50;;;22.30;1.00;;;;;;6018622;23;20151;-88
2023/06/04 07:54:27;;;;;;;7.37;2.20;;;22.40;1.00;;;;;;5984161;23;20446;-89
2023/06/04 07:56:59;;;;;;;4.97;1.97;;;21.90;1.00;;;;;;6019033;23;20753;-88
2023/06/04 07:59:29;;;;;;;11.40;2.30;;;22.50;1.00;;;;;;6009433;23;20403;-88
2023/06/04 08:01:59;;;;;;;7.10;2.20;;;22.40;1.00;;;;;;6008490;23;20505;-88
2023/06/04 08:04:27;;;;;;;10.33;2.27;;;22.70;1.00;;;;;;6009769;23;20423;-89
2023/06/04 08:06:57;;;;;;;5.20;2.23;;;22.60;1.00;;;;;;5983995;23;20427;-88
2023/06/04 08:09:28;;;;;;;4.83;1.83;;;22.80;1.00;;;;;;5984210;23;20422;-88
2023/06/04 08:11:56;;;;;;;5.30;1.70;;;23.10;1.00;;;;;;6008372;23;20491;-88
2023/06/04 08:14:31;;;;;;;5.00;1.60;;;23.00;1.00;;;;;;6008988;23;20439;-88
2023/06/04 08:17:00;;;;;;;6.00;1.93;;;23.10;1.00;;;;;;5984196;23;20428;-89
2023/06/04 08:19:28;;;;;;;6.33;2.10;;;23.50;1.00;;;;;;6008553;23;20418;-88
2023/06/04 08:22:03;;;;;;;5.10;1.60;;;24.10;1.00;;;;;;5983849;23;20433;-88
2023/06/04 08:24:31;;;;;;;5.17;1.80;;;24.10;1.00;;;;;;6008975;23;20402;-88
2023/06/04 08:27:00;;;;;;;6.70;2.33;;;24.10;1.00;;;;;;6008909;23;20450;-88
2023/06/04 08:29:29;;;;;;;7.63;2.33;;;24.10;1.00;;;;;;6009115;23;20505;-88
2023/06/04 08:32:00;;;;;;;6.80;2.13;;;24.40;1.00;;;;;;5961098;23;20828;-89
2023/06/04 08:34:28;;;;;;;6.27;2.20;;;24.10;1.00;;;;;;6018500;23;20430;-88
2023/06/04 08:36:56;;;;;;;5.10;2.07;;;24.40;1.00;;;;;;6008586;23;20430;-88
2023/06/04 08:39:24;;;;;;;5.87;1.93;;;24.20;1.00;;;;;;6008726;23;20934;-87
2023/06/04 08:41:56;;;;;;;7.73;2.37;;;24.20;1.00;;;;;;6008568;23;20414;-88
2023/06/04 08:44:23;;;;;;;6.63;2.27;;;24.30;1.00;;;;;;5983887;23;20514;-88
2023/06/04 08:46:55;;;;;;;6.40;2.37;;;24.60;1.00;;;;;;6007997;23;20927;-88
2023/06/04 08:49:30;;;;;;;7.90;2.40;;;25.10;1.00;;;;;;5983692;23;20964;-89
2023/06/04 08:51:59;;;;;;;9.43;2.37;;;25.40;1.00;;;;;;6008516;23;20399;-89
2023/06/04 08:54:27;;;;;;;4.73;1.70;;;25.20;1.00;;;;;;6008313;23;20422;-88
2023/06/04 08:57:01;;;;;;;10.00;2.13;;;25.20;1.00;;;;;;6009023;23;20423;-88
2023/06/04 08:59:30;;;;;;;4.87;1.80;;;26.00;1.00;;;;;;6009228;23;20430;-88
2023/06/04 09:02:03;;;;;;;6.90;1.93;;;25.60;1.00;;;;;;5983749;23;20419;-88
2023/06/04 09:04:36;;;;;;;5.50;2.10;;;26.00;1.00;;;;;;6008491;23;20454;-88
2023/06/04 09:07:10;;;;;;;5.77;1.83;;;26.00;1.00;;;;;;5961621;23;20443;-89
2023/06/04 09:09:44;;;;;;;8.10;2.07;;;25.80;1.00;;;;;;6008593;23;20867;-88
2023/06/04 09:12:25;;;;;;;5.13;2.03;;;25.80;1.00;;;;;;6008084;23;20925;-88
2023/06/04 09:15:08;;;;;;;6.63;1.90;;;26.00;1.00;;;;;;5983744;23;20438;-88
2023/06/04 09:17:39;;;;;;;6.10;1.87;;;25.90;1.00;;;;;;6008199;23;20781;-88
2023/06/04 09:20:11;;;;;;;6.70;1.90;;;25.80;1.00;;;;;;6018078;23;20762;-88
2023/06/04 09:22:45;;;;;;;5.80;1.97;;;25.90;1.00;;;;;;5983273;23;20451;-88
2023/06/04 09:25:25;;;;;;;5.20;1.80;;;26.00;1.00;;;;;;5983708;23;20419;-88
2023/06/04 09:27:53;;;;;;;4.93;1.67;;;25.80;1.00;;;;;;6007870;23;20502;-88
2023/06/04 09:30:21;;;;;;;8.80;2.10;;;25.50;1.00;;;;;;6008369;23;20929;-88
2023/06/04 09:32:50;;;;;;;5.57;1.93;;;25.40;1.00;;;;;;6008586;23;20418;-88
2023/06/04 09:35:20;;;;;;;11.63;1.87;;;24.90;1.00;;;;;;5983749;23;20438;-88
2023/06/04 09:37:58;;;;;;;6.40;2.00;;;25.10;1.00;;;;;;6008666;23;20446;-88
2023/06/04 09:40:26;;;;;;;11.03;2.33;;;25.80;1.00;;;;;;6008458;23;20492;-88
2023/06/04 09:42:56;;;;;;;8.37;2.30;;;26.10;1.00;;;;;;6008299;23;20890;-88
2023/06/04 09:45:31;;;;;;;5.53;2.33;;;26.10;1.00;;;;;;5983985;23;20441;-89
2023/06/04 09:47:58;;;;;;;5.80;2.37;;;26.40;1.00;;;;;;6007963;23;20442;-88
2023/06/04 09:50:33;;;;;;;5.87;1.63;;;26.00;1.00;;;;;;6010446;23;20418;-88
2023/06/04 09:53:13;;;;;;;7.80;2.40;;;25.50;1.00;;;;;;6010423;23;20585;-88
2023/06/04 09:55:42;;;;;;;5.13;1.67;;;26.00;1.00;;;;;;5985334;23;20474;-87
2023/06/04 09:58:13;;;;;;;5.53;2.10;;;26.10;1.00;;;;;;6010017;23;20406;-88
2023/06/04 10:00:48;;;;;;;6.67;2.20;;;26.20;1.00;;;;;;6010271;23;20451;-87
2023/06/04 10:03:23;;;;;;;5.60;1.97;;;25.60;1.00;;;;;;6010031;23;20460;-88
2023/06/04 10:05:58;;;;;;;5.23;2.17;;;26.10;1.00;;;;;;6010104;23;20418;-88
2023/06/04 10:08:29;;;;;;;6.30;2.00;;;26.40;1.00;;;;;;6009450;23;20474;-87
2023/06/04 10:11:00;;;;;;;5.77;2.07;;;25.90;1.00;;;;;;6010195;23;20416;-88
2023/06/04 10:13:30;;;;;;;7.40;2.07;;;26.70;1.00;;;;;;6009670;23;20756;-88
2023/06/04 10:16:03;;;;;;;5.10;1.73;;;26.70;1.00;;;;;;6010539;23;20839;-88
2023/06/04 10:18:34;;;;;;;7.30;2.37;;;26.90;1.00;;;;;;6009880;23;20476;-87
2023/06/04 10:21:03;;;;;;;6.63;1.97;;;26.70;1.00;;;;;;5984856;23;20440;-87
2023/06/04 10:23:33;;;;;;;4.83;1.50;;;26.60;1.00;;;;;;6009442;23;20424;-87
2023/06/04 10:26:05;;;;;;;6.77;2.00;;;26.20;1.00;;;;;;6009988;23;20394;-87
2023/06/04 10:28:33;;;;;;;5.47;1.97;;;26.50;1.00;;;;;;6009374;23;20444;-88
2023/06/04 10:31:03;;;;;;;6.67;2.13;;;27.10;1.00;;;;;;6009629;23;20833;-88
2023/06/04 10:33:31;;;;;;;7.87;2.50;;;27.70;1.00;;;;;;5984431;23;20460;-88
2023/06/04 10:36:00;;;;;;;5.57;1.47;;;28.80;1.00;;;;;;6009677;23;20477;-88
2023/06/04 10:38:30;;;;;;;6.90;1.80;;;28.50;1.00;;;;;;6009311;23;20449;-88
2023/06/04 10:41:15;;;;;;;5.10;1.50;;;27.70;1.00;;;;;;5962761;23;20438;-88
2023/06/04 10:43:43;;;;;;;6.50;1.80;;;27.90;1.00;;;;;;5985962;23;20409;-88
2023/06/04 10:46:21;;;;;;;4.93;1.70;;;28.10;1.00;;;;;;5984828;23;20403;-88
2023/06/04 10:48:51;;;;;;;5.13;1.83;;;28.70;1.00;;;;;;5985148;23;20498;-88
2023/06/04 10:51:33;;;;;;;5.07;1.77;;;28.40;1.00;;;;;;6009729;23;20489;-88
2023/06/04 10:54:04;;;;;;;5.97;2.13;;;27.80;1.00;;;;;;6009335;23;20421;-88
2023/06/04 10:56:43;;;;;;;6.40;1.93;;;27.20;1.00;;;;;;6009032;23;20527;-87
2023/06/04 10:59:16;;;;;;;5.57;1.87;;;27.80;1.00;;;;;;6007826;23;20460;-79
2023/06/04 11:01:45;;;;;;;11.23;2.57;;;27.40;1.00;;;;;;6009735;23;20422;-80
2023/06/04 11:04:23;;;;;;;6.83;2.13;;;27.70;1.00;;;;;;6008619;23;20484;-80
2023/06/04 11:07:02;;;;;;;6.60;2.33;;;27.40;1.00;;;;;;6009789;23;20441;-79
2023/06/04 11:09:29;;;;;;;7.00;2.10;;;27.50;1.00;;;;;;6009715;23;20381;-79
2023/06/04 11:12:00;;;;;;;9.03;2.30;;;27.50;1.00;;;;;;5984588;23;20426;-78
2023/06/04 11:14:27;;;;;;;5.37;1.47;;;28.00;1.00;;;;;;6009457;23;20425;-78
2023/06/04 11:16:54;;;;;;;6.10;1.93;;;27.40;1.00;;;;;;6008233;23;20445;-78
2023/06/04 11:19:21;;;;;;;7.83;2.07;;;28.00;1.00;;;;;;6009252;23;20751;-82
2023/06/04 11:21:52;;;;;;;5.00;1.60;;;28.40;1.00;;;;;;6009500;23;20422;-81
2023/06/04 11:24:22;;;;;;;6.13;1.67;;;28.20;1.00;;;;;;6008922;23;20410;-82
2023/06/04 11:26:52;;;;;;;6.23;2.40;;;29.70;1.00;;;;;;5983909;23;20726;-82
2023/06/04 11:29:20;;;;;;;4.83;1.87;;;30.70;1.00;;;;;;6008979;23;20455;-82
2023/06/04 11:31:48;;;;;;;6.13;2.30;;;29.30;1.00;;;;;;6008936;23;20483;-79
2023/06/04 11:34:24;;;;;;;4.97;1.70;;;29.70;1.00;;;;;;6009443;23;20419;-79
2023/06/04 11:36:53;;;;;;;7.57;1.80;;;28.90;1.00;;;;;;6009020;23;20401;-78
2023/06/04 11:39:21;;;;;;;5.87;1.50;;;29.30;1.00;;;;;;6008871;23;20430;-78
2023/06/04 11:41:50;;;;;;;6.27;2.17;;;29.60;1.00;;;;;;6008991;23;20778;-79
2023/06/04 11:44:21;;;;;;;5.20;1.97;;;29.40;1.00;;;;;;6009197;23;20401;-78
2023/06/04 11:46:52;;;;;;;5.37;2.10;;;30.00;1.00;;;;;;6008658;23;20399;-79
2023/06/04 11:49:20;;;;;;;7.60;2.00;;;30.10;1.00;;;;;;5984078;23;20475;-78
2023/06/04 11:51:50;;;;;;;5.90;1.90;;;29.90;1.00;;;;;;6008778;23;20478;-78
2023/06/04 11:54:18;;;;;;;5.67;1.93;;;29.10;1.00;;;;;;6009219;23;20759;-79
2023/06/04 11:56:46;;;;;;;7.07;2.10;;;29.30;1.00;;;;;;6008490;23;20421;-78
2023/06/04 11:59:14;;;;;;;6.10;2.07;;;28.90;1.00;;;;;;6008911;23;20393;-78
2023/06/04 12:01:43;;;;;;;7.43;2.37;;;28.70;1.00;;;;;;6008688;23;20946;-78
2023/06/04 12:04:13;;;;;;;5.87;1.80;;;28.80;1.00;;;;;;6008819;23;20397;-78
2023/06/04 12:06:53;;;;;;;5.20;2.00;;;29.20;1.00;;;;;;6007246;23;20390;-82
2023/06/04 12:09:23;;;;;;;5.40;1.60;;;29.00;1.00;;;;;;6007316;23;20474;-86
2023/06/04 12:11:51;;;;;;;6.03;2.40;;;30.10;1.00;;;;;;6007762;23;20480;-88
2023/06/04 12:14:19;;;;;;;7.30;2.57;;;29.80;1.00;;;;;;6016384;23;20397;-88
2023/06/04 12:16:57;;;;;;;7.50;2.43;;;29.40;1.00;;;;;;6004871;23;20910;-88
2023/06/04 12:19:26;;;;;;;6.00;2.50;;;29.10;1.00;;;;;;6008663;23;20489;-87
2023/06/04 12:22:03;;;;;;;6.10;2.20;;;29.80;1.00;;;;;;6008288;23;20522;-87
2023/06/04 12:24:30;;;;;;;5.20;2.30;;;29.90;1.00;;;;;;6007418;23;20453;-84
2023/06/04 12:27:08;;;;;;;5.03;1.87;;;30.00;1.00;;;;;;6008711;23;20390;-84
2023/06/04 12:29:35;;;;;;;11.83;1.90;;;30.60;1.00;;;;;;6007770;23;20437;-84
2023/06/04 12:32:07;;;;;;;5.47;2.23;;;30.70;1.00;;;;;;6007760;23;20393;-85
2023/06/04 12:34:34;;;;;;;10.47;2.10;;;30.80;1.00;;;;;;6008124;23;20406;-84
2023/06/04 12:37:02;;;;;;;6.20;1.90;;;30.40;1.00;;;;;;6008593;23;20987;-85
2023/06/04 12:39:29;;;;;;;6.10;2.53;;;29.00;1.00;;;;;;6008820;23;20434;-85
2023/06/04 12:41:56;;;;;;;5.63;1.77;;;28.40;1.00;;;;;;6008164;23;20739;-82
2023/06/04 12:44:23;;;;;;;5.30;2.00;;;29.30;1.00;;;;;;6008553;23;20408;-83
2023/06/04 12:46:51;;;;;;;6.90;2.10;;;28.90;1.00;;;;;;5982785;23;20812;-83
2023/06/04 12:49:20;;;;;;;5.90;1.87;;;29.70;1.00;;;;;;6008697;23;20509;-83
2023/06/04 12:51:47;;;;;;;5.50;2.27;;;30.20;1.00;;;;;;6008622;23;20419;-83
2023/06/04 12:54:14;;;;;;;5.50;2.10;;;30.60;1.00;;;;;;6008006;23;20423;-83
2023/06/04 12:56:44;;;;;;;6.33;2.10;;;31.20;1.00;;;;;;6008363;23;20421;-82
2023/06/04 12:59:11;;;;;;;8.63;2.30;;;31.70;1.00;;;;;;5983415;23;20428;-82
2023/06/04 13:01:38;;;;;;;6.90;2.17;;;31.10;1.00;;;;;;6008403;23;20393;-82
2023/06/04 13:04:05;;;;;;;5.33;2.10;;;30.70;1.00;;;;;;6006986;23;20991;-83
2023/06/04 13:06:35;;;;;;;5.30;2.03;;;30.00;1.00;;;;;;6006992;23;20454;-82
2023/06/04 13:09:08;;;;;;;7.60;2.17;;;31.10;1.00;;;;;;6007236;23;20820;-82
2023/06/04 13:11:35;;;;;;;5.67;2.10;;;31.50;1.00;;;;;;6008675;23;20411;-82
2023/06/04 13:14:02;;;;;;;5.27;1.87;;;30.60;1.00;;;;;;6007359;23;20419;-85
2023/06/04 13:16:29;;;;;;;5.20;2.10;;;30.30;1.00;;;;;;6007954;23;20464;-84
2023/06/04 13:18:56;;;;;;;5.50;2.07;;;30.70;1.00;;;;;;6007476;23;20416;-83
2023/06/04 13:21:23;;;;;;;6.73;1.83;;;29.40;1.00;;;;;;6008309;23;20966;-84
2023/06/04 13:23:51;;;;;;;5.23;1.97;;;29.50;1.00;;;;;;6007583;23;20401;-83
2023/06/04 13:26:19;;;;;;;8.33;2.37;;;28.90;1.00;;;;;;6007913;23;20418;-83
2023/06/04 13:28:45;;;;;;;5.77;1.70;;;30.30;1.00;;;;;;6008075;23;20473;-83
2023/06/04 13:31:12;;;;;;;5.47;1.90;;;29.90;1.00;;;;;;6008124;23;20423;-83
2023/06/04 13:33:39;;;;;;;5.53;2.00;;;29.50;1.00;;;;;;5990468;23;20577;-91
2023/06/04 13:36:07;;;;;;;9.57;2.80;;;29.70;1.00;;;;;;6018048;23;20446;-91
2023/06/04 13:38:34;;;;;;;6.87;1.97;;;30.50;1.00;;;;;;6015577;23;20423;-90
2023/06/04 13:43:34;;;;;;;5.83;2.27;;;30.60;1.00;;;;;;6009636;23;20430;-63
2023/06/04 13:46:01;;;;;;;6.60;3.10;;;29.60;1.00;;;;;;6010535;23;20385;-64
2023/06/04 13:48:29;;;;;;;4.90;2.03;;;29.60;1.00;;;;;;6009735;23;20414;-63
2023/06/04 13:50:55;;;;;;;5.33;1.97;;;29.70;1.00;;;;;;6010129;23;20415;-63
2023/06/04 13:53:22;;;;;;;5.70;2.13;;;29.80;1.00;;;;;;6009958;23;20396;-63
2023/06/04 13:55:49;;;;;;;8.73;2.33;;;29.10;1.00;;;;;;6010357;23;20718;-63
2023/06/04 13:58:16;;;;;;;7.37;2.13;;;28.60;1.00;;;;;;6010122;23;20419;-63
2023/06/04 14:00:44;;;;;;;6.57;1.90;;;28.40;1.00;;;;;;6010166;23;20972;-63
2023/06/04 14:03:10;;;;;;;5.77;1.90;;;28.20;1.00;;;;;;6008947;23;20476;-64
2023/06/04 14:05:37;;;;;;;6.63;2.30;;;28.50;1.00;;;;;;6010556;23;20815;-64
2023/06/04 14:08:04;;;;;;;5.80;2.20;;;28.80;1.00;;;;;;6009894;23;20783;-64
2023/06/04 14:10:32;;;;;;;6.03;2.23;;;29.90;1.00;;;;;;6010165;23;20418;-64
2023/06/04 14:12:58;;;;;;;5.17;2.07;;;30.80;1.00;;;;;;6009005;23;20453;-64
2023/06/04 14:15:28;;;;;;;6.60;1.83;;;31.50;1.00;;;;;;6009883;23;20418;-64
2023/06/04 14:17:56;;;;;;;5.57;2.27;;;29.50;1.00;;;;;;6009752;23;20443;-64
2023/06/04 14:20:23;;;;;;;7.20;2.47;;;28.50;1.00;;;;;;6009963;23;20403;-64
2023/06/04 14:22:50;;;;;;;5.80;1.90;;;27.70;1.00;;;;;;6009815;23;20419;-64
2023/06/04 14:25:16;;;;;;;7.53;2.47;;;28.60;1.00;;;;;;6009588;23;20418;-64
2023/06/04 14:27:43;;;;;;;5.63;2.40;;;28.60;1.00;;;;;;6006434;23;20498;-64
2023/06/04 14:30:11;;;;;;;7.27;2.30;;;29.30;1.00;;;;;;6008491;23;20451;-64
2023/06/04 14:32:40;;;;;;;8.77;2.20;;;30.30;1.00;;;;;;6007791;23;20533;-64
2023/06/04 14:35:09;;;;;;;5.30;1.87;;;30.70;1.00;;;;;;6008272;23;20439;-64
2023/06/04 14:37:36;;;;;;;7.00;2.20;;;29.20;1.00;;;;;;6010091;23;20420;-64
2023/06/04 14:40:03;;;;;;;7.03;2.30;;;28.20;1.00;;;;;;6010312;23;20419;-64
2023/06/04 14:42:30;;;;;;;5.50;2.07;;;29.00;1.00;;;;;;6009751;23;20430;-64
2023/06/04 14:44:59;;;;;;;5.70;2.10;;;29.10;1.00;;;;;;6010346;23;20429;-65
2023/06/04 14:47:26;;;;;;;6.17;2.20;;;29.40;1.00;;;;;;6018766;23;20397;-64
2023/06/04 14:49:53;;;;;;;7.57;2.10;;;29.70;1.00;;;;;;6019552;23;20397;-64
2023/06/04 14:52:21;;;;;;;11.40;2.10;;;29.70;1.00;;;;;;6010179;23;20426;-65
2023/06/04 14:54:51;;;;;;;7.10;1.90;;;29.30;1.00;;;;;;6011749;23;20393;-66
2023/06/04 14:57:19;;;;;;;5.53;1.93;;;28.70;1.00;;;;;;6009870;23;20439;-65
2023/06/04 14:59:46;;;;;;;6.15;2.20;;;28.00;1.00;;;;;;6010544;23;20411;-66
2023/06/04 15:02:12;;;;;;;6.00;2.27;;;27.30;1.00;;;;;;6010670;23;20199;-65
2023/06/04 15:04:43;;;;;;;6.43;2.13;;;27.80;1.00;;;;;;6011044;23;20423;-65
2023/06/04 15:07:10;;;;;;;5.90;2.43;;;27.70;1.00;;;;;;6007125;23;20403;-65
2023/06/04 15:09:38;;;;;;;5.13;2.07;;;28.20;1.00;;;;;;6010298;23;20422;-65
2023/06/04 15:12:06;;;;;;;5.10;1.97;;;27.90;1.00;;;;;;6010311;23;20730;-65
2023/06/04 15:14:35;;;;;;;5.50;2.23;;;27.60;1.00;;;;;;6010830;23;20418;-65
2023/06/04 15:17:02;;;;;;;5.80;1.50;;;28.00;1.00;;;;;;6010801;23;20921;-66
2023/06/04 15:19:29;;;;;;;6.80;2.23;;;27.30;1.00;;;;;;6011285;23;20393;-65
2023/06/04 15:21:58;;;;;;;4.77;1.77;;;27.60;1.00;;;;;;6009940;23;20399;-66
2023/06/04 15:24:25;;;;;;;5.53;2.30;;;28.30;1.00;;;;;;6011491;23;20422;-66
2023/06/04 15:26:53;;;;;;;6.33;2.37;;;29.20;1.00;;;;;;6010820;23;20389;-65
2023/06/04 15:29:20;;;;;;;5.93;1.80;;;28.40;1.00;;;;;;6011668;23;20400;-66
2023/06/04 15:31:50;;;;;;;6.27;2.00;;;28.60;1.00;;;;;;6010768;23;20404;-64
2023/06/04 15:34:20;;;;;;;5.70;2.40;;;28.90;1.00;;;;;;6010342;23;20689;-66
2023/06/04 15:36:47;;;;;;;8.80;2.20;;;28.40;1.00;;;;;;6010540;23;20438;-65
2023/06/04 15:39:14;;;;;;;7.60;2.00;;;28.70;1.00;;;;;;6010954;23;20453;-66
2023/06/04 15:41:41;;;;;;;6.83;1.93;;;29.00;1.00;;;;;;6010906;23;20907;-66
2023/06/04 15:44:09;;;;;;;5.00;1.97;;;29.10;1.00;;;;;;6010893;23;20490;-65
2023/06/04 15:46:36;;;;;;;6.73;2.50;;;30.20;1.00;;;;;;6010765;23;20425;-65
2023/06/04 15:49:07;;;;;;;4.93;1.90;;;30.20;1.00;;;;;;6011282;23;20393;-66
2023/06/04 15:51:35;;;;;;;6.00;2.40;;;30.50;1.00;;;;;;6010900;23;20419;-66
2023/06/04 15:54:02;;;;;;;8.10;2.57;;;30.20;1.00;;;;;;6010492;23;20425;-66
2023/06/04 15:56:29;;;;;;;6.63;2.50;;;29.80;1.00;;;;;;6010777;23;20474;-65
2023/06/04 15:58:56;;;;;;;5.53;2.40;;;29.70;1.00;;;;;;6010949;23;20393;-65
2023/06/04 16:01:24;;;;;;;5.20;1.87;;;30.70;1.00;;;;;;6010783;23;20394;-65
2023/06/04 16:03:52;;;;;;;6.00;2.17;;;30.90;1.00;;;;;;6006825;23;20424;-66
2023/06/04 16:06:19;;;;;;;5.87;2.27;;;30.50;1.00;;;;;;6009902;23;20426;-66
2023/06/04 16:08:46;;;;;;;6.33;2.33;;;30.30;1.00;;;;;;6009955;23;20414;-69
2023/06/04 16:11:13;;;;;;;7.87;2.27;;;30.00;1.00;;;;;;6010593;23;20397;-65
2023/06/04 16:13:40;;;;;;;5.73;2.10;;;30.50;1.00;;;;;;6009485;23;20394;-65
2023/06/04 16:16:06;;;;;;;6.87;2.60;;;30.30;1.00;;;;;;6010418;23;20488;-65
2023/06/04 16:18:35;;;;;;;5.60;1.90;;;29.70;1.00;;;;;;6009717;23;20417;-66
2023/06/04 16:21:01;;;;;;;6.80;2.10;;;29.70;1.00;;;;;;6010341;23;20430;-66
2023/06/04 16:23:28;;;;;;;6.53;1.90;;;30.10;1.00;;;;;;6009119;23;20506;-65
2023/06/04 16:25:55;;;;;;;6.13;2.07;;;30.00;1.00;;;;;;6010351;23;20397;-64
2023/06/04 16:28:22;;;;;;;6.80;2.00;;;29.70;1.00;;;;;;6009933;23;20419;-64
2023/06/04 16:30:51;;;;;;;5.93;1.93;;;29.90;1.00;;;;;;6010403;23;20419;-64
2023/06/04 16:33:18;;;;;;;5.10;1.80;;;29.50;1.00;;;;;;6010389;23;20461;-64
2023/06/04 16:35:46;;;;;;;7.07;2.17;;;29.90;1.00;;;;;;6007903;23;20400;-64
2023/06/04 16:38:13;;;;;;;5.00;1.60;;;29.60;1.00;;;;;;6009862;23;20413;-64
2023/06/04 16:40:40;;;;;;;4.90;1.93;;;29.20;1.00;;;;;;6009575;23;20426;-64
2023/06/04 16:43:06;;;;;;;11.23;2.30;;;28.80;1.00;;;;;;6009182;23;20758;-64
2023/06/04 16:45:33;;;;;;;9.87;1.90;;;28.20;1.00;;;;;;6010228;23;20423;-64
2023/06/04 16:48:00;;;;;;;5.30;1.90;;;28.30;1.00;;;;;;6009836;23;20449;-64
2023/06/04 16:50:27;;;;;;;4.80;1.67;;;29.40;1.00;;;;;;6010226;23;20404;-64
2023/06/04 16:52:55;;;;;;;5.43;1.70;;;29.30;1.00;;;;;;6010658;23;20421;-64
2023/06/04 16:55:30;;;;;;;6.17;2.00;;;29.20;1.00;;;;;;6010039;23;20460;-64
2023/06/04 16:57:56;;;;;;;5.37;2.03;;;29.50;1.00;;;;;;6009944;23;20430;-64
2023/06/04 17:00:23;;;;;;;6.27;2.00;;;29.40;1.00;;;;;;6010627;23;20432;-64
2023/06/04 17:02:50;;;;;;;5.50;2.10;;;29.50;1.00;;;;;;6008974;23;20427;-64
2023/06/04 17:05:17;;;;;;;7.07;1.90;;;29.50;1.00;;;;;;6008934;23;20395;-64
2023/06/04 17:07:44;;;;;;;8.10;1.70;;;30.10;1.00;;;;;;6008834;23;20420;-64
2023/06/04 17:10:13;;;;;;;4.73;1.67;;;29.70;1.00;;;;;;6009677;23;20400;-64
2023/06/04 17:12:40;;;;;;;6.50;2.50;;;30.30;1.00;;;;;;6009680;23;20897;-64
2023/06/04 17:15:08;;;;;;;5.80;1.83;;;30.10;1.00;;;;;;6010524;23;20585;-64
2023/06/04 17:17:35;;;;;;;6.10;2.10;;;29.80;1.00;;;;;;6010076;23;20414;-64
2023/06/04 17:20:03;;;;;;;8.20;2.27;;;30.10;1.00;;;;;;6006747;23;20395;-64
2023/06/04 17:22:32;;;;;;;5.53;2.20;;;29.40;1.00;;;;;;6008254;23;20423;-64
2023/06/04 17:24:59;;;;;;;5.50;1.87;;;29.50;1.00;;;;;;6008098;23;20433;-64
2023/06/04 17:27:27;;;;;;;5.27;1.50;;;29.40;1.00;;;;;;6008488;23;20397;-64
2023/06/04 17:29:54;;;;;;;5.60;2.00;;;29.20;1.00;;;;;;6008388;23;20746;-64
2023/06/04 17:32:21;;;;;;;5.70;2.10;;;29.40;1.00;;;;;;6007975;23;21011;-64
2023/06/04 17:34:47;;;;;;;6.70;2.40;;;30.20;1.00;;;;;;6008299;23;20754;-64
2023/06/04 17:37:14;;;;;;;5.60;2.07;;;30.80;1.00;;;;;;6008409;23;20517;-64
2023/06/04 17:39:41;;;;;;;7.70;2.60;;;30.00;1.00;;;;;;6008524;23;20892;-64
2023/06/04 17:42:11;;;;;;;5.70;2.23;;;30.00;1.00;;;;;;6007729;23;20815;-64
2023/06/04 17:44:39;;;;;;;7.17;2.63;;;29.80;1.00;;;;;;6008516;23;20505;-64
2023/06/04 17:47:06;;;;;;;6.70;2.63;;;29.30;1.00;;;;;;6008154;23;20393;-64
2023/06/04 17:49:33;;;;;;;9.80;2.60;;;29.30;1.00;;;;;;6008405;23;20717;-63
2023/06/04 17:52:00;;;;;;;8.10;2.60;;;29.40;1.00;;;;;;6008148;23;20446;-63
2023/06/04 17:54:27;;;;;;;6.27;2.37;;;29.60;1.00;;;;;;6009036;23;20538;-64
2023/06/04 17:56:53;;;;;;;7.17;2.83;;;30.10;1.00;;;;;;6008379;23;20763;-63
2023/06/04 17:59:20;;;;;;;6.07;2.77;;;29.90;1.00;;;;;;6008760;23;20766;-64
2023/06/04 18:01:48;;;;;;;6.87;3.00;;;29.50;1.00;;;;;;6008953;23;20418;-64
2023/06/04 18:04:17;;;;;;;6.53;2.67;;;29.70;1.00;;;;;;6008608;23;20926;-64
2023/06/04 18:06:44;;;;;;;6.17;2.37;;;30.20;1.00;;;;;;6007945;23;20455;-64
2023/06/04 18:09:10;;;;;;;6.63;3.17;;;30.30;1.00;;;;;;6007803;23;20415;-64
2023/06/04 18:11:37;;;;;;;6.23;2.87;;;29.20;1.00;;;;;;6010329;23;20396;-64
2023/06/04 18:14:04;;;;;;;6.20;2.20;;;29.30;1.00;;;;;;6009855;23;20429;-64
2023/06/04 18:16:31;;;;;;;6.57;2.83;;;29.70;1.00;;;;;;6010630;23;20418;-64
2023/06/04 18:18:59;;;;;;;7.10;2.97;;;29.90;1.00;;;;;;6009970;23;20438;-64
2023/06/04 18:21:26;;;;;;;6.60;2.50;;;30.00;1.00;;;;;;6011386;23;20736;-64
2023/06/04 18:23:53;;;;;;;8.53;2.57;;;30.00;1.00;;;;;;6010631;23;20419;-64
2023/06/04 18:26:20;;;;;;;6.10;2.60;;;29.70;1.00;;;;;;6010218;23;20418;-64
2023/06/04 18:28:47;;;;;;;7.93;2.33;;;29.60;1.00;;;;;;6011059;23;20457;-63
2023/06/04 18:31:13;;;;;;;5.17;2.20;;;29.30;1.00;;;;;;6011414;23;20422;-63
2023/06/04 18:33:50;;;;;;;7.17;2.90;;;29.20;1.00;;;;;;6010825;23;20425;-63
2023/06/04 18:36:19;;;;;;;7.43;3.10;;;29.40;1.00;;;;;;6011684;23;20407;-63
2023/06/04 18:38:45;;;;;;;7.83;2.67;;;29.20;1.00;;;;;;6011375;23;20443;-63
2023/06/04 18:41:12;;;;;;;6.63;2.87;;;28.40;1.00;;;;;;6011629;23;20441;-63
2023/06/04 18:43:39;;;;;;;6.90;2.80;;;28.20;1.00;;;;;;6011226;23;20414;-63
2023/06/04 18:46:06;;;;;;;9.23;3.20;;;27.90;1.00;;;;;;6011756;23;20419;-63
2023/06/04 18:48:32;;;;;;;6.10;2.50;;;27.20;1.00;;;;;;6011540;23;20455;-63
2023/06/04 18:50:59;;;;;;;7.37;2.80;;;27.20;1.00;;;;;;6011245;23;20469;-63
2023/06/04 18:53:27;;;;;;;6.70;2.13;;;26.70;1.00;;;;;;6011190;23;20425;-63
2023/06/04 18:55:57;;;;;;;7.60;2.47;;;26.40;1.00;;;;;;6011688;23;20419;-63
2023/06/04 18:58:23;;;;;;;6.80;2.40;;;26.10;1.00;;;;;;6011284;23;20732;-63
2023/06/04 19:00:50;;;;;;;10.70;2.50;;;25.70;1.00;;;;;;6008981;23;20451;-63
2023/06/04 19:03:17;;;;;;;6.07;2.60;;;25.30;1.00;;;;;;6009046;23;20419;-63
2023/06/04 19:05:48;;;;;;;6.23;2.60;;;25.10;1.00;;;;;;6009906;23;20418;-63
2023/06/04 19:08:15;;;;;;;8.40;2.77;;;24.80;1.00;;;;;;6008141;23;20854;-62